createdAt,value
2022-11-20T00:01:26.269Z,101541.25
2022-11-20T00:03:55.205Z,101541.25
2022-11-20T00:06:23.190Z,101537.72
2022-11-20T00:08:50.119Z,101536.78
2022-11-20T00:11:19.333Z,101531.56
2022-11-20T00:13:51.606Z,101525.47
2022-11-20T00:16:20.852Z,101526.34
2022-11-20T00:18:50.377Z,101528.09
2022-11-20T00:21:20.597Z,101529.84
2022-11-20T00:23:50.036Z,101530.75
2022-11-20T00:26:18.547Z,101528.97
2022-11-20T00:28:55.455Z,101527.22
2022-11-20T00:31:22.306Z,101526.34
2022-11-20T00:33:49.342Z,101525.47
2022-11-20T00:36:27.514Z,101528.91
2022-11-20T00:39:00.326Z,101524.56
2022-11-20T00:41:30.989Z,101517.59
2022-11-20T00:44:00.517Z,101517.59
2022-11-20T00:46:32.156Z,101507.09
2022-11-20T00:49:08.244Z,101503.63
2022-11-20T00:51:35.093Z,101499.25
2022-11-20T00:54:03.206Z,101493.16
2022-11-20T00:56:29.952Z,101497.50
2022-11-20T00:58:57.258Z,101486.22
2022-11-20T01:01:26.384Z,101494.06
2022-11-20T01:03:57.976Z,101495.78
2022-11-20T01:06:27.387Z,101488.81
2022-11-20T01:08:59.348Z,101484.47
2022-11-20T01:11:29.219Z,101487.94
2022-11-20T01:13:58.358Z,101490.56
2022-11-20T01:16:30.642Z,101475.78
2022-11-20T01:19:01.518Z,101487.13
2022-11-20T01:21:37.174Z,101486.22
2022-11-20T01:24:05.487Z,101481.00
2022-11-20T01:26:36.994Z,101480.97
2022-11-20T01:29:05.175Z,101463.59
2022-11-20T01:31:34.056Z,101477.56
2022-11-20T01:34:02.722Z,101462.72
2022-11-20T01:36:31.117Z,101469.69
2022-11-20T01:39:00.167Z,101461.84
2022-11-20T01:41:52.086Z,101461.84
2022-11-20T01:44:21.828Z,101457.44
2022-11-20T01:46:58.848Z,101449.59
2022-11-20T01:49:33.202Z,101451.28
2022-11-20T01:52:08.490Z,101442.53
2022-11-20T01:54:41.733Z,101439.97
2022-11-20T01:57:13.081Z,101438.25
2022-11-20T01:59:45.993Z,101434.75
2022-11-20T02:02:12.594Z,101430.41
2022-11-20T02:04:43.863Z,101426.00
2022-11-20T02:07:11.514Z,101423.44
2022-11-20T02:09:40.665Z,101419.06
2022-11-20T02:12:27.530Z,101419.03
2022-11-20T02:14:54.128Z,101417.28
2022-11-20T02:17:21.463Z,101419.00
2022-11-20T02:19:48.136Z,101413.78
2022-11-20T02:22:32.089Z,101415.50
2022-11-20T02:25:02.926Z,101409.38
2022-11-20T02:27:29.957Z,101400.72
2022-11-20T02:30:07.420Z,101406.81
2022-11-20T02:32:36.891Z,101392.88
2022-11-20T02:35:18.917Z,101386.81
2022-11-20T02:37:50.149Z,101381.56
2022-11-20T02:40:16.902Z,101378.97
2022-11-20T02:42:43.502Z,101383.31
2022-11-20T02:45:10.521Z,101388.53
2022-11-20T02:47:39.898Z,101378.97
2022-11-20T02:50:07.314Z,101374.56
2022-11-20T02:52:33.903Z,101379.78
2022-11-20T02:55:00.549Z,101367.63
2022-11-20T02:57:27.190Z,101367.59
2022-11-20T02:59:53.805Z,101366.69
2022-11-20T03:02:20.634Z,101365.84
2022-11-20T03:04:47.326Z,101360.63
2022-11-20T03:07:13.962Z,101370.22
2022-11-20T03:09:40.559Z,101361.47
2022-11-20T03:12:07.429Z,101350.16
2022-11-20T03:14:34.020Z,101351.03
2022-11-20T03:17:00.598Z,101347.59
2022-11-20T03:19:27.245Z,101349.28
2022-11-20T03:21:53.820Z,101341.44
2022-11-20T03:24:20.465Z,101350.16
2022-11-20T03:26:47.054Z,101345.75
2022-11-20T03:29:13.625Z,101350.16
2022-11-20T03:31:41.895Z,101344.91
2022-11-20T03:34:10.051Z,101344.91
2022-11-20T03:36:42.402Z,101340.53
2022-11-20T03:39:09.439Z,101332.66
2022-11-20T03:41:41.271Z,101338.75
2022-11-20T03:44:10.513Z,101328.31
2022-11-20T03:46:37.655Z,101330.03
2022-11-20T03:49:04.994Z,101326.56
2022-11-20T03:51:33.902Z,101324.78
2022-11-20T03:54:02.689Z,101311.72
2022-11-20T03:56:35.268Z,101312.56
2022-11-20T03:59:02.119Z,101309.06
2022-11-20T04:01:32.542Z,101304.72
2022-11-20T04:03:59.354Z,101297.78
2022-11-20T04:06:36.326Z,101295.16
2022-11-20T04:09:03.562Z,101291.69
2022-11-20T04:11:32.134Z,101295.16
2022-11-20T04:14:01.167Z,101296.03
2022-11-20T04:16:30.741Z,101295.97
2022-11-20T04:18:59.296Z,101286.41
2022-11-20T04:21:26.880Z,101284.69
2022-11-20T04:23:54.612Z,101277.72
2022-11-20T04:26:23.158Z,101269.03
2022-11-20T04:28:49.820Z,101275.16
2022-11-20T04:31:19.150Z,101266.44
2022-11-20T04:33:46.060Z,101267.28
2022-11-20T04:36:15.861Z,101271.69
2022-11-20T04:38:43.024Z,101271.69
2022-11-20T04:41:15.574Z,101265.59
2022-11-20T04:43:42.407Z,101259.50
2022-11-20T04:46:08.990Z,101256.91
2022-11-20T04:48:35.883Z,101249.06
2022-11-20T04:51:06.000Z,101250.84
2022-11-20T04:53:32.797Z,101245.63
2022-11-20T04:56:04.386Z,101243.94
2022-11-20T04:58:31.082Z,101243.06
2022-11-20T05:01:10.276Z,101248.28
2022-11-20T05:03:42.048Z,101251.75
2022-11-20T05:06:12.148Z,101234.34
2022-11-20T05:08:38.907Z,101234.34
2022-11-20T05:11:10.706Z,101229.97
2022-11-20T05:13:38.064Z,101228.28
2022-11-20T05:16:11.046Z,101226.50
2022-11-20T05:18:40.808Z,101217.75
2022-11-20T05:21:08.615Z,101222.09
2022-11-20T05:23:36.354Z,101211.63
2022-11-20T05:26:04.256Z,101220.31
2022-11-20T05:28:31.987Z,101221.16
2022-11-20T05:31:27.968Z,101207.22
2022-11-20T05:33:56.710Z,101208.94
2022-11-20T05:36:23.650Z,101208.94
2022-11-20T05:38:51.201Z,101199.34
2022-11-20T05:41:20.281Z,101205.44
2022-11-20T05:43:48.631Z,101196.72
2022-11-20T05:46:17.404Z,101204.56
2022-11-20T05:48:45.084Z,101192.41
2022-11-20T05:51:14.275Z,101195.88
2022-11-20T05:53:47.868Z,101194.97
2022-11-20T05:56:21.840Z,101196.69
2022-11-20T05:58:49.477Z,101189.75
2022-11-20T06:01:26.909Z,101192.31
2022-11-20T06:03:54.660Z,101189.75
2022-11-20T06:06:21.476Z,101190.63
2022-11-20T06:08:48.471Z,101174.09
2022-11-20T06:11:16.692Z,101169.75
2022-11-20T06:13:44.070Z,101171.53
2022-11-20T06:16:12.116Z,101162.84
2022-11-20T06:18:39.049Z,101167.19
2022-11-20T06:21:14.828Z,101168.97
2022-11-20T06:23:41.732Z,101168.13
2022-11-20T06:26:20.096Z,101169.00
2022-11-20T06:28:47.205Z,101169.88
2022-11-20T06:31:15.944Z,101171.63
2022-11-20T06:33:43.653Z,101173.34
2022-11-20T06:36:12.298Z,101160.31
2022-11-20T06:38:40.021Z,101155.09
2022-11-20T06:41:08.456Z,101151.63
2022-11-20T06:43:35.084Z,101150.75
2022-11-20T06:46:01.932Z,101155.09
2022-11-20T06:48:29.566Z,101159.41
2022-11-20T06:50:56.956Z,101156.78
2022-11-20T06:53:24.313Z,101149.84
2022-11-20T06:55:52.427Z,101148.09
2022-11-20T06:58:19.485Z,101136.78
2022-11-20T07:00:46.422Z,101132.44
2022-11-20T07:03:13.480Z,101133.28
2022-11-20T07:05:42.804Z,101137.63
2022-11-20T07:08:09.886Z,101143.72
2022-11-20T07:10:37.192Z,101150.72
2022-11-20T07:13:03.957Z,101161.13
2022-11-20T07:15:31.103Z,101154.16
2022-11-20T07:18:00.661Z,101147.19
2022-11-20T07:20:27.781Z,101146.31
2022-11-20T07:22:58.588Z,101144.56
2022-11-20T07:25:26.585Z,101144.56
2022-11-20T07:27:53.261Z,101137.63
2022-11-20T07:30:20.121Z,101124.56
2022-11-20T07:32:53.683Z,101113.31
2022-11-20T07:35:20.926Z,101112.41
2022-11-20T07:37:48.268Z,101117.63
2022-11-20T07:40:15.082Z,101115.91
2022-11-20T07:42:57.281Z,101112.41
2022-11-20T07:45:26.510Z,101112.44
2022-11-20T07:47:54.750Z,101104.63
2022-11-20T07:50:25.107Z,101096.78
2022-11-20T07:53:02.808Z,101103.78
2022-11-20T07:55:31.199Z,101099.41
2022-11-20T07:58:01.742Z,101102.06
2022-11-20T08:00:28.764Z,101097.69
2022-11-20T08:02:55.746Z,101099.53
2022-11-20T08:05:22.393Z,101089.09
2022-11-20T08:07:49.429Z,101080.44
2022-11-20T08:10:19.709Z,101078.66
2022-11-20T08:13:06.929Z,101072.56
2022-11-20T08:15:34.181Z,101070.84
2022-11-20T08:18:29.384Z,101067.38
2022-11-20T08:20:49.149Z,101068.31
2022-11-20T08:23:15.863Z,101068.31
2022-11-20T08:25:42.449Z,101072.66
2022-11-20T08:28:20.313Z,101073.56
2022-11-20T08:30:48.681Z,101064.00
2022-11-20T08:33:17.951Z,101065.78
2022-11-20T08:35:44.970Z,101064.88
2022-11-20T08:38:11.549Z,101058.78
2022-11-20T08:40:38.149Z,101048.34
2022-11-20T08:43:05.348Z,101042.28
2022-11-20T08:45:34.635Z,101044.91
2022-11-20T08:48:05.157Z,101042.31
2022-11-20T08:50:33.317Z,101044.06
2022-11-20T08:53:07.405Z,101034.50
2022-11-20T08:55:36.559Z,101023.22
2022-11-20T08:58:07.191Z,101033.66
2022-11-20T09:00:35.204Z,101029.31
2022-11-20T09:03:02.545Z,101024.13
2022-11-20T09:05:29.362Z,101022.41
2022-11-20T09:08:00.214Z,101026.75
2022-11-20T09:10:30.216Z,101022.44
2022-11-20T09:12:57.259Z,101017.22
2022-11-20T09:15:25.066Z,101012.88
2022-11-20T09:17:52.807Z,101018.13
2022-11-20T09:20:19.848Z,101012.00
2022-11-20T09:22:46.617Z,101006.78
2022-11-20T09:25:13.226Z,101004.16
2022-11-20T09:27:40.085Z,101011.16
2022-11-20T09:30:07.302Z,101011.16
2022-11-20T09:32:33.986Z,101006.81
2022-11-20T09:37:32.036Z,100999.03
2022-11-20T09:39:58.605Z,101000.78
2022-11-20T09:42:27.870Z,100998.16
2022-11-20T09:45:00.397Z,100988.59
2022-11-20T09:47:45.510Z,100986.00
2022-11-20T09:50:32.894Z,100987.72
2022-11-20T09:53:21.244Z,100987.72
2022-11-20T09:55:49.458Z,100976.41
2022-11-20T09:58:40.195Z,100965.09
2022-11-20T10:01:30.231Z,100961.66
2022-11-20T10:04:05.605Z,100965.13
2022-11-20T10:07:10.546Z,100955.56
2022-11-20T10:09:45.092Z,100952.94
2022-11-20T10:12:32.888Z,100945.09
2022-11-20T10:15:34.192Z,100940.75
2022-11-20T10:18:22.078Z,100942.47
2022-11-20T10:20:57.473Z,100934.66
2022-11-20T10:23:42.785Z,100925.94
2022-11-20T10:26:21.558Z,100921.59
2022-11-20T10:28:59.884Z,100921.56
2022-11-20T10:32:01.138Z,100925.94
2022-11-20T10:34:57.788Z,100924.19
2022-11-20T10:37:26.972Z,100915.53
2022-11-20T10:40:24.468Z,100920.75
2022-11-20T10:43:19.102Z,100913.78
2022-11-20T10:45:51.858Z,100907.69
2022-11-20T10:48:27.119Z,100905.09
2022-11-20T10:51:12.499Z,100909.47
2022-11-20T10:54:03.005Z,100903.38
2022-11-20T10:56:50.198Z,100894.66
2022-11-20T10:59:32.241Z,100900.75
2022-11-20T11:02:01.594Z,100897.31
2022-11-20T11:04:30.101Z,100897.31
2022-11-20T11:07:22.491Z,100897.34
2022-11-20T11:09:53.158Z,100880.78
2022-11-20T11:12:21.779Z,100878.16
2022-11-20T11:14:56.265Z,100884.25
2022-11-20T11:17:34.180Z,100866.84
2022-11-20T11:20:15.320Z,100869.47
2022-11-20T11:22:56.726Z,100868.59
2022-11-20T11:25:34.539Z,100856.44
2022-11-20T11:28:20.921Z,100854.69
2022-11-20T11:30:49.577Z,100845.97
2022-11-20T11:33:30.547Z,100841.66
2022-11-20T11:36:17.631Z,100838.16
2022-11-20T11:38:45.067Z,100828.59
2022-11-20T11:41:21.857Z,100819.88
2022-11-20T11:44:35.305Z,100826.84
2022-11-20T11:47:03.276Z,100821.63
2022-11-20T11:49:29.856Z,100818.16
2022-11-20T11:52:01.994Z,100805.97
2022-11-20T11:54:35.277Z,100808.59
2022-11-20T11:57:09.615Z,100804.25
2022-11-20T12:00:02.342Z,100805.97
2022-11-20T12:02:34.957Z,100791.19
2022-11-20T12:05:18.529Z,100799.88
2022-11-20T12:07:58.309Z,100798.16
2022-11-20T12:10:33.783Z,100794.66
2022-11-20T12:13:05.666Z,100796.41
2022-11-20T12:15:35.285Z,100780.75
2022-11-20T12:18:02.878Z,100775.50
2022-11-20T12:20:37.364Z,100775.50
2022-11-20T12:23:21.001Z,100770.28
2022-11-20T12:25:54.864Z,100773.75
2022-11-20T12:28:30.851Z,100769.41
2022-11-20T12:30:57.406Z,100773.75
2022-11-20T12:33:34.021Z,100765.91
2022-11-20T12:36:18.902Z,100760.69
2022-11-20T12:38:54.283Z,100761.56
2022-11-20T12:41:57.605Z,100755.44
2022-11-20T12:44:55.918Z,100749.34
2022-11-20T12:47:40.619Z,100746.75
2022-11-20T12:50:47.575Z,100740.66
2022-11-20T12:53:44.463Z,100733.66
2022-11-20T12:56:41.026Z,100743.25
2022-11-20T12:59:26.026Z,100734.53
2022-11-20T13:01:59.681Z,100731.94
2022-11-20T13:04:38.329Z,100732.78
2022-11-20T13:07:09.834Z,100724.09
2022-11-20T13:09:47.146Z,100713.63
2022-11-20T13:12:25.514Z,100724.97
2022-11-20T13:15:19.509Z,100711.88
2022-11-20T13:17:56.597Z,100711.88
2022-11-20T13:20:23.319Z,100707.53
2022-11-20T13:23:00.823Z,100704.03
2022-11-20T13:25:33.435Z,100698.84
2022-11-20T13:28:04.470Z,100704.06
2022-11-20T13:30:38.499Z,100702.28
2022-11-20T13:33:24.147Z,100697.06
2022-11-20T13:36:00.918Z,100691.84
2022-11-20T13:38:33.740Z,100696.22
2022-11-20T13:41:22.107Z,100689.25
2022-11-20T13:43:49.464Z,100684.03
2022-11-20T13:46:16.652Z,100678.81
2022-11-20T13:48:47.684Z,100681.41
2022-11-20T13:51:45.285Z,100670.97
2022-11-20T13:54:35.299Z,100680.56
2022-11-20T13:57:15.245Z,100671.84
2022-11-20T13:59:54.348Z,100674.47
2022-11-20T14:02:23.037Z,100666.63
2022-11-20T14:04:52.525Z,100662.28
2022-11-20T14:07:22.610Z,100669.25
2022-11-20T14:09:54.815Z,100663.16
2022-11-20T14:12:30.073Z,100665.75
2022-11-20T14:14:57.247Z,100658.78
2022-11-20T14:17:29.953Z,100667.50
2022-11-20T14:20:06.079Z,100655.31
2022-11-20T14:22:32.802Z,100652.69
2022-11-20T14:25:28.856Z,100647.47
2022-11-20T14:27:58.701Z,100645.72
2022-11-20T14:30:37.357Z,100649.22
2022-11-20T14:33:05.536Z,100653.56
2022-11-20T14:35:38.046Z,100646.59
2022-11-20T14:38:05.246Z,100644.00
2022-11-20T14:40:36.582Z,100644.84
2022-11-20T14:43:18.394Z,100632.66
2022-11-20T14:45:49.853Z,100636.13
2022-11-20T14:48:17.049Z,100620.47
2022-11-20T14:50:43.648Z,100617.00
2022-11-20T14:53:10.250Z,100615.22
2022-11-20T14:55:39.388Z,100608.28
2022-11-20T14:58:20.944Z,100604.81
2022-11-20T15:01:06.231Z,100609.16
2022-11-20T15:03:41.668Z,100605.66
2022-11-20T15:06:13.007Z,100609.16
2022-11-20T15:08:39.617Z,100602.16
2022-11-20T15:11:19.634Z,100604.78
2022-11-20T15:13:46.629Z,100601.28
2022-11-20T15:16:22.311Z,100608.25
2022-11-20T15:18:49.260Z,100590.84
2022-11-20T15:21:20.550Z,100592.59
2022-11-20T15:23:47.325Z,100590.81
2022-11-20T15:26:20.240Z,100591.69
2022-11-20T15:28:51.170Z,100592.56
2022-11-20T15:31:20.706Z,100585.63
2022-11-20T15:33:48.075Z,100580.41
2022-11-20T15:36:15.024Z,100577.78
2022-11-20T15:38:41.709Z,100559.53
2022-11-20T15:41:09.075Z,100569.97
2022-11-20T15:43:35.861Z,100559.50
2022-11-20T15:46:27.981Z,100549.06
2022-11-20T15:48:58.532Z,100552.53
2022-11-20T15:51:38.644Z,100550.78
2022-11-20T15:54:21.507Z,100550.75
2022-11-20T15:56:49.800Z,100547.28
2022-11-20T15:59:16.737Z,100541.22
2022-11-20T16:01:43.923Z,100551.63
2022-11-20T16:04:16.538Z,100539.47
2022-11-20T16:06:43.418Z,100529.91
2022-11-20T16:09:10.376Z,100528.16
2022-11-20T16:11:37.649Z,100518.59
2022-11-20T16:14:24.258Z,100511.63
2022-11-20T16:16:51.901Z,100516.84
2022-11-20T16:19:19.103Z,100515.97
2022-11-20T16:21:46.617Z,100500.31
2022-11-20T16:24:15.310Z,100496.84
2022-11-20T16:26:42.854Z,100497.69
2022-11-20T16:29:11.009Z,100505.53
2022-11-20T16:31:38.064Z,100507.25
2022-11-20T16:34:11.951Z,100504.66
2022-11-20T16:36:43.449Z,100499.41
2022-11-20T16:39:10.666Z,100496.81
2022-11-20T16:41:37.414Z,100489.00
2022-11-20T16:44:09.216Z,100489.88
2022-11-20T16:46:36.000Z,100484.66
2022-11-20T16:49:05.608Z,100483.78
2022-11-20T16:51:35.506Z,100485.50
2022-11-20T16:54:03.506Z,100478.56
2022-11-20T16:56:30.141Z,100468.13
2022-11-20T16:58:59.559Z,100472.47
2022-11-20T17:01:28.835Z,100476.84
2022-11-20T17:04:04.625Z,100471.63
2022-11-20T17:06:40.943Z,100455.09
2022-11-20T17:09:10.797Z,100455.09
2022-11-20T17:11:37.941Z,100436.81
2022-11-20T17:14:04.808Z,100442.94
2022-11-20T17:16:31.780Z,100431.63
2022-11-20T17:19:02.934Z,100429.88
2022-11-20T17:21:31.552Z,100416.84
2022-11-20T17:24:02.214Z,100429.03
2022-11-20T17:26:29.155Z,100430.75
2022-11-20T17:28:59.762Z,100435.13
2022-11-20T17:31:27.920Z,100420.34
2022-11-20T17:33:54.817Z,100423.81
2022-11-20T17:36:21.895Z,100416.84
2022-11-20T17:38:49.363Z,100417.72
2022-11-20T17:41:22.400Z,100410.75
2022-11-20T17:43:50.170Z,100403.81
2022-11-20T17:46:20.893Z,100399.47
2022-11-20T17:48:48.684Z,100383.84
2022-11-20T17:51:23.087Z,100384.72
2022-11-20T17:53:55.780Z,100369.91
2022-11-20T17:56:41.303Z,100369.03
2022-11-20T17:59:10.183Z,100366.47
2022-11-20T18:01:37.989Z,100362.09
2022-11-20T18:04:04.628Z,100362.09
2022-11-20T18:06:32.074Z,100372.53
2022-11-20T18:09:00.097Z,100369.06
2022-11-20T18:11:29.911Z,100368.19
2022-11-20T18:14:17.306Z,100371.66
2022-11-20T18:16:52.071Z,100366.44
2022-11-20T18:19:22.357Z,100359.47
2022-11-20T18:21:48.959Z,100362.97
2022-11-20T18:24:16.209Z,100373.41
2022-11-20T18:26:44.485Z,100370.78
2022-11-20T18:29:12.830Z,100372.53
2022-11-20T18:31:40.184Z,100374.25
2022-11-20T18:34:11.442Z,100367.31
2022-11-20T18:36:38.886Z,100362.09
2022-11-20T18:39:06.159Z,100364.69
2022-11-20T18:41:51.323Z,100365.59
2022-11-20T18:44:42.139Z,100361.22
2022-11-20T18:47:14.860Z,100368.16
2022-11-20T18:49:43.246Z,100385.56
2022-11-20T18:52:09.846Z,100385.59
2022-11-20T18:54:37.077Z,100388.19
2022-11-20T18:57:05.002Z,100384.72
2022-11-20T18:59:32.188Z,100394.25
2022-11-20T19:01:59.022Z,100400.34
2022-11-20T19:04:26.011Z,100402.97
2022-11-20T19:06:56.171Z,100400.34
2022-11-20T19:09:24.223Z,100396.00
2022-11-20T19:11:51.383Z,100405.56
2022-11-20T19:14:18.263Z,100397.72
2022-11-20T19:16:45.193Z,100406.44
2022-11-20T19:19:11.982Z,100406.44
2022-11-20T19:21:38.615Z,100409.91
2022-11-20T19:24:05.503Z,100406.44
2022-11-20T19:26:35.315Z,100406.41
2022-11-20T19:29:02.244Z,100409.91
2022-11-20T19:31:29.049Z,100408.16
2022-11-20T19:34:00.907Z,100420.34
2022-11-20T19:36:32.577Z,100416.00
2022-11-20T19:38:59.999Z,100422.97
2022-11-20T19:41:31.771Z,100419.44
2022-11-20T19:44:03.970Z,100424.69
2022-11-20T19:46:34.555Z,100423.81
2022-11-20T19:49:05.168Z,100437.72
2022-11-20T19:51:48.421Z,100438.59
2022-11-20T19:54:17.684Z,100432.50
2022-11-20T19:56:48.488Z,100435.13
2022-11-20T19:59:15.405Z,100433.41
2022-11-20T20:01:42.851Z,100430.78
2022-11-20T20:04:09.500Z,100429.91
2022-11-20T20:06:42.217Z,100421.22
2022-11-20T20:09:12.074Z,100421.19
2022-11-20T20:11:40.174Z,100429.91
2022-11-20T20:14:10.468Z,100422.06
2022-11-20T20:16:37.220Z,100432.50
2022-11-20T20:19:05.604Z,100424.69
2022-11-20T20:21:35.229Z,100425.56
2022-11-20T20:24:02.897Z,100422.06
2022-11-20T20:26:31.689Z,100415.97
2022-11-20T20:28:58.503Z,100416.84
2022-11-20T20:31:27.864Z,100409.03
2022-11-20T20:33:55.317Z,100411.66
2022-11-20T20:36:23.751Z,100407.28
2022-11-20T20:38:55.045Z,100417.72
2022-11-20T20:41:23.551Z,100428.19
2022-11-20T20:44:08.856Z,100431.66
2022-11-20T20:46:35.473Z,100443.84
2022-11-20T20:49:02.059Z,100446.47
2022-11-20T20:51:28.696Z,100444.72
2022-11-20T20:53:55.978Z,100455.16
2022-11-20T20:56:22.598Z,100458.63
2022-11-20T20:58:52.380Z,100456.88
2022-11-20T21:01:20.272Z,100456.88
2022-11-20T21:03:48.405Z,100456.03
2022-11-20T21:06:15.019Z,100458.63
2022-11-20T21:08:44.241Z,100449.94
2022-11-20T21:11:13.963Z,100455.13
2022-11-20T21:13:43.019Z,100458.59
2022-11-20T21:16:12.070Z,100467.34
2022-11-20T21:18:38.822Z,100457.75
2022-11-20T21:21:30.116Z,100462.09
2022-11-20T21:23:56.928Z,100466.44
2022-11-20T21:26:23.558Z,100467.34
2022-11-20T21:28:52.030Z,100465.56
2022-11-20T21:31:27.391Z,100460.38
2022-11-20T21:33:55.497Z,100465.59
2022-11-20T21:36:24.654Z,100472.53
2022-11-20T21:38:54.231Z,100460.34
2022-11-20T21:41:21.307Z,100465.59
2022-11-20T21:44:09.134Z,100476.03
2022-11-20T21:46:38.254Z,100476.00
2022-11-20T21:49:07.832Z,100475.16
2022-11-20T21:51:34.575Z,100479.50
2022-11-20T21:54:01.633Z,100471.69
2022-11-20T21:56:28.350Z,100476.00
2022-11-20T21:58:55.829Z,100467.31
2022-11-20T22:01:27.891Z,100474.28
2022-11-20T22:03:57.330Z,100469.06
2022-11-20T22:06:32.529Z,100468.19
2022-11-20T22:09:02.955Z,100476.00
2022-11-20T22:11:29.672Z,100482.97
2022-11-20T22:14:15.034Z,100474.28
2022-11-20T22:16:41.757Z,100475.16
2022-11-20T22:19:08.588Z,100461.22
2022-11-20T22:21:35.333Z,100460.34
2022-11-20T22:24:02.146Z,100456.00
2022-11-20T22:26:33.903Z,100460.34
2022-11-20T22:29:04.402Z,100465.56
2022-11-20T22:31:34.133Z,100465.56
2022-11-20T22:34:04.650Z,100462.09
2022-11-20T22:36:32.358Z,100467.31
2022-11-20T22:38:59.159Z,100456.91
2022-11-20T22:41:28.296Z,100457.75
2022-11-20T22:43:56.957Z,100465.56
2022-11-20T22:46:24.847Z,100460.38
2022-11-20T22:48:55.973Z,100462.97
2022-11-20T22:51:24.703Z,100463.84
2022-11-20T22:53:51.648Z,100453.38
2022-11-20T22:56:18.945Z,100458.63
2022-11-20T22:58:47.719Z,100462.13
2022-11-20T23:01:22.757Z,100456.00
2022-11-20T23:03:56.017Z,100457.78
2022-11-20T23:06:22.978Z,100449.03
2022-11-20T23:08:50.316Z,100445.59
2022-11-20T23:11:19.825Z,100442.09
2022-11-20T23:13:47.292Z,100443.81
2022-11-20T23:16:19.894Z,100443.81
2022-11-20T23:18:46.725Z,100445.56
2022-11-20T23:21:16.118Z,100442.97
2022-11-20T23:23:44.045Z,100450.78
2022-11-20T23:26:12.510Z,100447.31
2022-11-20T23:28:40.653Z,100457.78
2022-11-20T23:31:10.392Z,100461.25
2022-11-20T23:33:42.408Z,100457.75
2022-11-20T23:36:10.081Z,100453.41
2022-11-20T23:38:37.056Z,100453.41
2022-11-20T23:41:04.282Z,100452.50
2022-11-20T23:43:33.556Z,100452.50
2022-11-20T23:46:01.424Z,100447.28
2022-11-20T23:48:30.354Z,100450.81
2022-11-20T23:50:57.025Z,100445.56
2022-11-20T23:53:23.976Z,100447.31
2022-11-20T23:55:55.579Z,100446.47
2022-11-20T23:58:23.810Z,100447.31
